createdAt,value
2022-12-25T00:00:08.369Z,10.80
2022-12-25T00:03:16.296Z,11.60
2022-12-25T00:06:04.699Z,11.40
2022-12-25T00:08:52.560Z,10.40
2022-12-25T00:11:40.700Z,10.20
2022-12-25T00:14:28.629Z,10.20
2022-12-25T00:17:16.869Z,8.80
2022-12-25T00:20:05.279Z,9.50
2022-12-25T00:22:53.049Z,10.60
2022-12-25T00:25:40.950Z,9.40
2022-12-25T00:28:28.985Z,9.60
2022-12-25T00:31:18.225Z,9.60
2022-12-25T00:34:06.214Z,10.30
2022-12-25T00:36:53.971Z,10.00
2022-12-25T00:39:41.930Z,10.00
2022-12-25T00:42:29.749Z,8.80
2022-12-25T00:45:17.834Z,9.10
2022-12-25T00:48:06.183Z,9.60
2022-12-25T00:50:57.679Z,9.70
2022-12-25T00:53:45.650Z,9.60
2022-12-25T00:56:33.705Z,10.50
2022-12-25T00:59:21.421Z,10.00
2022-12-25T01:02:24.905Z,10.90
2022-12-25T01:05:13.101Z,10.40
2022-12-25T01:08:00.637Z,11.60
2022-12-25T01:11:06.367Z,10.40
2022-12-25T01:13:54.334Z,9.30
2022-12-25T01:16:42.719Z,10.10
2022-12-25T01:19:30.459Z,12.30
2022-12-25T01:22:18.282Z,10.60
2022-12-25T01:25:07.254Z,12.20
2022-12-25T01:27:55.216Z,11.70
2022-12-25T01:30:49.639Z,11.20
2022-12-25T01:33:39.208Z,12.60
2022-12-25T01:36:27.421Z,11.10
2022-12-25T01:39:15.641Z,11.80
2022-12-25T01:42:05.277Z,10.90
2022-12-25T01:44:53.166Z,10.30
2022-12-25T01:47:40.857Z,11.50
2022-12-25T01:50:28.985Z,10.10
2022-12-25T01:53:17.149Z,11.20
2022-12-25T01:56:08.608Z,11.60
2022-12-25T01:58:58.244Z,12.80
2022-12-25T02:01:47.226Z,10.80
2022-12-25T02:04:50.716Z,13.70
2022-12-25T02:07:41.441Z,12.30
2022-12-25T02:10:30.373Z,11.80
2022-12-25T02:13:20.298Z,12.50
2022-12-25T02:16:21.156Z,13.20
2022-12-25T02:19:59.661Z,14.80
2022-12-25T02:23:25.098Z,13.20
2022-12-25T02:26:37.175Z,12.90
2022-12-25T02:30:00.169Z,12.00
2022-12-25T02:33:20.029Z,11.20
2022-12-25T02:36:16.234Z,13.70
2022-12-25T02:39:34.820Z,14.70
2022-12-25T02:43:43.619Z,9.60
2022-12-25T02:46:51.832Z,12.80
2022-12-25T02:50:00.475Z,13.00
2022-12-25T02:53:08.918Z,13.30
2022-12-25T02:56:16.450Z,12.40
2022-12-25T02:59:24.657Z,10.30
2022-12-25T03:02:33.435Z,13.90
2022-12-25T03:05:45.536Z,13.10
2022-12-25T03:08:42.502Z,13.10
2022-12-25T03:11:33.256Z,9.30
2022-12-25T03:14:39.671Z,14.00
2022-12-25T03:17:27.633Z,13.10
2022-12-25T03:20:34.458Z,12.70
2022-12-25T03:23:52.272Z,13.40
2022-12-25T03:26:55.384Z,12.10
2022-12-25T03:30:02.221Z,10.30
2022-12-25T03:33:18.001Z,10.40
2022-12-25T03:36:40.421Z,10.90
2022-12-25T03:39:55.661Z,10.60
2022-12-25T03:43:08.951Z,11.40
2022-12-25T03:46:23.430Z,8.90
2022-12-25T03:50:30.556Z,10.10
2022-12-25T03:54:07.016Z,11.40
2022-12-25T03:57:15.086Z,10.30
2022-12-25T04:00:22.454Z,9.50
2022-12-25T04:03:28.607Z,9.10
2022-12-25T04:06:35.131Z,10.00
2022-12-25T04:09:41.834Z,10.40
2022-12-25T04:12:48.220Z,10.30
2022-12-25T04:15:54.369Z,10.50
2022-12-25T04:19:00.681Z,11.30
2022-12-25T04:22:07.088Z,11.70
2022-12-25T04:25:13.482Z,9.70
2022-12-25T04:28:21.710Z,10.50
2022-12-25T04:31:28.050Z,9.50
2022-12-25T04:34:34.286Z,8.30
2022-12-25T04:37:22.103Z,9.20
2022-12-25T04:40:10.546Z,8.70
2022-12-25T04:42:58.316Z,7.70
2022-12-25T04:45:57.022Z,9.80
2022-12-25T04:48:44.971Z,9.00
2022-12-25T04:51:32.935Z,8.90
2022-12-25T04:54:21.130Z,8.50
2022-12-25T04:57:08.968Z,8.20
2022-12-25T04:59:56.998Z,8.10
2022-12-25T05:02:45.030Z,9.00
2022-12-25T05:05:33.168Z,9.20
2022-12-25T05:08:21.319Z,9.00
2022-12-25T05:11:13.173Z,7.30
2022-12-25T05:14:01.131Z,10.70
2022-12-25T05:16:49.410Z,9.80
2022-12-25T05:19:37.550Z,9.80
2022-12-25T05:22:25.519Z,10.60
2022-12-25T05:25:13.547Z,10.90
2022-12-25T05:28:01.349Z,9.90
2022-12-25T05:30:49.232Z,8.90
2022-12-25T05:33:36.872Z,9.80
2022-12-25T05:36:24.845Z,10.20
2022-12-25T05:39:12.677Z,9.30
2022-12-25T05:42:01.152Z,7.70
2022-12-25T05:44:49.049Z,9.00
2022-12-25T05:47:37.044Z,9.20
2022-12-25T05:50:25.146Z,10.00
2022-12-25T05:53:24.915Z,9.80
2022-12-25T05:56:12.870Z,10.00
2022-12-25T05:59:00.832Z,10.30
2022-12-25T06:01:48.898Z,10.70
2022-12-25T06:04:37.170Z,9.60
2022-12-25T06:07:24.849Z,9.80
2022-12-25T06:10:12.973Z,11.70
2022-12-25T06:13:00.961Z,10.70
2022-12-25T06:15:48.801Z,10.10
2022-12-25T06:18:49.033Z,9.10
2022-12-25T06:21:36.975Z,9.40
2022-12-25T06:24:24.988Z,8.60
2022-12-25T06:27:12.871Z,9.70
2022-12-25T06:30:00.616Z,8.50
2022-12-25T06:32:48.373Z,9.00
2022-12-25T06:35:40.346Z,10.90
2022-12-25T06:38:28.623Z,10.90
2022-12-25T06:41:23.041Z,10.10
2022-12-25T06:44:11.213Z,10.90
2022-12-25T06:46:59.645Z,11.90
2022-12-25T06:49:47.767Z,11.10
2022-12-25T06:52:35.663Z,10.70
2022-12-25T06:55:23.310Z,10.10
2022-12-25T06:58:11.760Z,10.40
2022-12-25T07:01:00.245Z,10.80
2022-12-25T07:03:52.406Z,9.30
2022-12-25T07:06:40.676Z,11.50
2022-12-25T07:09:28.749Z,13.40
2022-12-25T07:12:23.769Z,12.70
2022-12-25T07:15:11.722Z,10.40
2022-12-25T07:17:59.639Z,11.20
2022-12-25T07:20:47.272Z,11.70
2022-12-25T07:23:35.490Z,11.80
2022-12-25T07:26:23.355Z,12.30
2022-12-25T07:29:11.150Z,10.90
2022-12-25T07:31:59.662Z,11.80
2022-12-25T07:34:47.692Z,9.90
2022-12-25T07:37:35.581Z,9.20
2022-12-25T07:40:26.430Z,11.10
2022-12-25T07:43:14.368Z,12.20
2022-12-25T07:46:02.757Z,13.40
2022-12-25T07:48:50.840Z,13.80
2022-12-25T07:51:39.015Z,14.20
2022-12-25T07:54:26.802Z,12.70
2022-12-25T07:57:14.885Z,13.20
2022-12-25T08:00:05.918Z,13.20
2022-12-25T08:03:00.834Z,14.90
2022-12-25T08:05:49.096Z,13.60
2022-12-25T08:08:40.156Z,15.20
2022-12-25T08:11:28.185Z,15.50
2022-12-25T08:14:16.306Z,16.50
2022-12-25T08:17:05.230Z,17.20
2022-12-25T08:19:53.171Z,18.60
2022-12-25T08:22:41.127Z,16.00
2022-12-25T08:25:29.178Z,14.60
2022-12-25T08:28:17.524Z,19.80
2022-12-25T08:31:22.917Z,17.10
2022-12-25T08:34:12.029Z,16.70
2022-12-25T08:36:59.961Z,18.20
2022-12-25T08:39:47.991Z,13.60
2022-12-25T08:42:36.004Z,14.60
2022-12-25T08:45:28.468Z,14.70
2022-12-25T08:48:19.709Z,14.70
2022-12-25T08:51:14.801Z,15.30
2022-12-25T08:54:03.354Z,14.20
2022-12-25T08:56:51.400Z,14.90
2022-12-25T08:59:39.404Z,17.10
2022-12-25T09:02:28.060Z,16.20
2022-12-25T09:05:16.613Z,16.60
2022-12-25T09:08:05.208Z,4.70
2022-12-25T09:10:53.306Z,18.90
2022-12-25T09:13:42.152Z,17.10
2022-12-25T09:16:30.218Z,18.70
2022-12-25T09:19:18.000Z,18.90
2022-12-25T09:22:06.252Z,17.40
2022-12-25T09:24:54.141Z,17.30
2022-12-25T09:27:43.759Z,19.00
2022-12-25T09:30:31.425Z,21.00
2022-12-25T09:33:20.977Z,19.00
2022-12-25T09:36:09.544Z,15.90
2022-12-25T09:38:57.729Z,19.10
2022-12-25T09:41:48.627Z,17.50
2022-12-25T09:44:50.493Z,17.60
2022-12-25T09:47:42.179Z,17.60
2022-12-25T09:51:04.389Z,15.10
2022-12-25T09:54:00.932Z,15.90
2022-12-25T09:56:49.294Z,16.60
2022-12-25T09:59:38.380Z,17.20
2022-12-25T10:02:55.614Z,17.50
2022-12-25T10:06:18.766Z,17.40
2022-12-25T10:09:56.384Z,18.00
2022-12-25T10:12:57.707Z,16.30
2022-12-25T10:16:01.073Z,10.80
2022-12-25T10:19:19.374Z,16.30
2022-12-25T10:22:19.554Z,16.00
2022-12-25T10:25:23.291Z,12.80
2022-12-25T10:28:44.879Z,11.50
2022-12-25T10:31:37.360Z,13.80
2022-12-25T10:34:25.582Z,12.00
2022-12-25T10:37:14.283Z,10.50
2022-12-25T10:40:02.418Z,12.00
2022-12-25T10:42:59.083Z,22.90
2022-12-25T10:45:49.748Z,12.50
2022-12-25T10:48:47.679Z,13.10
2022-12-25T10:51:39.484Z,12.00
2022-12-25T10:54:35.186Z,12.30
2022-12-25T10:57:26.272Z,12.30
2022-12-25T11:00:23.771Z,12.40
2022-12-25T11:03:25.598Z,11.20
2022-12-25T11:06:29.568Z,11.80
2022-12-25T11:09:17.628Z,11.60
2022-12-25T11:12:06.802Z,10.30
2022-12-25T11:15:23.137Z,10.10
2022-12-25T11:18:20.153Z,11.00
2022-12-25T11:21:24.294Z,11.30
2022-12-25T11:24:21.690Z,12.80
2022-12-25T11:27:28.708Z,11.90
2022-12-25T11:30:16.812Z,11.70
2022-12-25T11:33:13.153Z,11.30
2022-12-25T11:36:08.478Z,11.60
2022-12-25T11:39:05.313Z,11.20
2022-12-25T11:42:05.735Z,11.40
2022-12-25T11:45:15.015Z,10.40
2022-12-25T11:48:11.739Z,9.70
2022-12-25T11:51:05.978Z,8.40
2022-12-25T11:54:08.097Z,9.70
2022-12-25T11:57:00.718Z,9.60
2022-12-25T12:00:10.294Z,8.50
2022-12-25T12:03:15.502Z,10.30
2022-12-25T12:06:42.070Z,9.40
2022-12-25T12:10:27.181Z,10.40
2022-12-25T12:13:45.073Z,10.60
2022-12-25T12:16:34.757Z,10.40
2022-12-25T12:19:26.802Z,10.60
2022-12-25T12:22:24.488Z,11.80
2022-12-25T12:25:18.327Z,11.00
2022-12-25T12:28:06.465Z,12.50
2022-12-25T12:31:13.476Z,14.30
2022-12-25T12:34:02.516Z,13.80
2022-12-25T12:36:56.440Z,13.00
2022-12-25T12:39:45.093Z,14.40
2022-12-25T12:42:45.245Z,14.10
2022-12-25T12:45:38.464Z,14.00
2022-12-25T12:48:30.004Z,10.90
2022-12-25T12:51:34.788Z,16.60
2022-12-25T12:54:26.537Z,16.90
2022-12-25T12:57:29.540Z,16.40
2022-12-25T13:00:21.323Z,16.10
2022-12-25T13:03:49.010Z,13.90
2022-12-25T13:07:30.407Z,18.00
2022-12-25T13:10:35.244Z,18.20
2022-12-25T13:13:37.196Z,17.90
2022-12-25T13:16:29.409Z,18.50
2022-12-25T13:19:22.241Z,18.20
2022-12-25T13:22:26.757Z,18.60
2022-12-25T13:25:21.850Z,18.90
2022-12-25T13:28:14.885Z,19.20
2022-12-25T13:31:17.417Z,18.80
2022-12-25T13:34:37.651Z,19.70
2022-12-25T13:37:30.327Z,20.20
2022-12-25T13:40:26.604Z,20.40
2022-12-25T13:43:14.974Z,21.00
2022-12-25T13:46:02.810Z,20.90
2022-12-25T13:49:00.247Z,21.00
2022-12-25T13:51:50.909Z,20.90
2022-12-25T13:54:38.971Z,21.30
2022-12-25T13:57:59.369Z,19.70
2022-12-25T14:00:54.322Z,20.20
2022-12-25T14:03:46.351Z,22.30
2022-12-25T14:06:34.680Z,21.60
2022-12-25T14:09:23.372Z,20.20
2022-12-25T14:12:17.359Z,20.10
2022-12-25T14:15:07.998Z,21.00
2022-12-25T14:17:55.899Z,21.60
2022-12-25T14:21:02.444Z,21.90
2022-12-25T14:23:51.005Z,20.80
2022-12-25T14:26:38.781Z,22.20
2022-12-25T14:29:41.915Z,22.90
2022-12-25T14:32:38.483Z,22.00
2022-12-25T14:35:26.975Z,22.20
2022-12-25T14:38:34.987Z,22.50
2022-12-25T14:41:38.243Z,22.20
2022-12-25T14:44:40.956Z,20.70
2022-12-25T14:47:30.458Z,21.90
2022-12-25T14:50:34.091Z,23.60
2022-12-25T14:53:26.567Z,22.40
2022-12-25T14:56:20.240Z,23.10
2022-12-25T14:59:21.042Z,25.10
2022-12-25T15:02:19.466Z,22.70
2022-12-25T15:05:35.612Z,22.50
2022-12-25T15:08:25.029Z,24.00
2022-12-25T15:11:12.748Z,22.70
2022-12-25T15:14:00.905Z,23.30
2022-12-25T15:16:52.656Z,21.30
2022-12-25T15:19:40.341Z,24.00
2022-12-25T15:22:47.685Z,23.90
2022-12-25T15:25:37.013Z,21.00
2022-12-25T15:28:25.091Z,21.90
2022-12-25T15:31:31.498Z,23.30
2022-12-25T15:34:21.408Z,22.60
2022-12-25T15:37:09.443Z,21.10
2022-12-25T15:39:57.700Z,20.60
2022-12-25T15:42:48.367Z,20.90
2022-12-25T15:45:36.473Z,22.00
2022-12-25T15:48:24.286Z,22.60
2022-12-25T15:51:12.343Z,22.00
2022-12-25T15:54:00.457Z,21.40
2022-12-25T15:56:52.230Z,20.10
2022-12-25T15:59:39.864Z,20.70
2022-12-25T16:02:28.442Z,20.40
2022-12-25T16:05:16.983Z,19.70
2022-12-25T16:08:04.929Z,20.70
2022-12-25T16:10:54.029Z,19.50
2022-12-25T16:13:43.538Z,20.80
2022-12-25T16:16:32.023Z,21.10
2022-12-25T16:19:19.841Z,21.80
2022-12-25T16:22:25.595Z,19.70
2022-12-25T16:25:19.431Z,21.10
2022-12-25T16:28:10.364Z,20.40
2022-12-25T16:30:58.626Z,21.70
2022-12-25T16:33:46.463Z,20.40
2022-12-25T16:36:36.918Z,21.10
2022-12-25T16:39:25.077Z,19.40
2022-12-25T16:42:13.356Z,19.10
2022-12-25T16:45:01.932Z,18.90
2022-12-25T16:47:50.733Z,17.90
2022-12-25T16:50:40.068Z,19.00
2022-12-25T16:53:27.799Z,17.40
2022-12-25T16:56:20.725Z,22.20
2022-12-25T16:59:08.956Z,20.60
2022-12-25T17:01:57.113Z,19.90
2022-12-25T17:04:46.546Z,20.80
2022-12-25T17:07:37.663Z,21.00
2022-12-25T17:10:25.654Z,20.30
2022-12-25T17:13:13.478Z,18.70
2022-12-25T17:16:10.914Z,19.80
2022-12-25T17:19:23.948Z,19.20
2022-12-25T17:22:13.270Z,18.90
2022-12-25T17:25:00.872Z,17.90
2022-12-25T17:27:50.726Z,18.20
2022-12-25T17:30:39.014Z,19.00
2022-12-25T17:33:27.098Z,19.50
2022-12-25T17:36:19.470Z,18.50
2022-12-25T17:39:07.732Z,18.10
2022-12-25T17:41:55.644Z,19.00
2022-12-25T17:44:43.547Z,17.70
2022-12-25T17:47:31.608Z,17.00
2022-12-25T17:50:19.829Z,17.50
2022-12-25T17:53:08.009Z,17.70
2022-12-25T17:55:59.546Z,18.10
2022-12-25T17:58:57.474Z,18.00
2022-12-25T18:01:47.137Z,17.80
2022-12-25T18:04:35.665Z,17.30
2022-12-25T18:07:23.725Z,16.60
2022-12-25T18:10:12.022Z,16.80
2022-12-25T18:12:59.974Z,17.30
2022-12-25T18:15:48.037Z,18.20
2022-12-25T18:18:36.527Z,17.40
2022-12-25T18:21:24.368Z,17.50
2022-12-25T18:24:12.385Z,17.00
2022-12-25T18:27:00.387Z,17.40
2022-12-25T18:29:48.343Z,16.20
2022-12-25T18:32:37.039Z,17.60
2022-12-25T18:35:29.164Z,17.50
2022-12-25T18:38:17.476Z,17.90
2022-12-25T18:41:08.555Z,17.10
2022-12-25T18:43:57.350Z,17.70
2022-12-25T18:46:45.558Z,16.30
2022-12-25T18:49:34.310Z,17.90
2022-12-25T18:52:49.265Z,17.50
2022-12-25T18:55:31.560Z,18.70
2022-12-25T18:58:19.461Z,18.80
2022-12-25T19:01:22.710Z,16.20
2022-12-25T19:04:12.835Z,15.90
2022-12-25T19:07:00.820Z,19.30
2022-12-25T19:09:50.354Z,17.10
2022-12-25T19:12:38.368Z,16.70
2022-12-25T19:15:26.022Z,17.60
2022-12-25T19:18:14.368Z,16.40
2022-12-25T19:21:08.856Z,15.60
2022-12-25T19:23:56.736Z,15.30
2022-12-25T19:26:44.688Z,12.20
2022-12-25T19:29:33.165Z,14.70
2022-12-25T19:32:21.355Z,14.80
2022-12-25T19:35:09.384Z,14.40
2022-12-25T19:37:57.163Z,13.10
2022-12-25T19:41:00.679Z,13.30
2022-12-25T19:43:50.456Z,12.90
2022-12-25T19:46:41.850Z,13.00
2022-12-25T19:49:30.965Z,13.80
2022-12-25T19:52:19.238Z,13.50
2022-12-25T19:55:08.618Z,13.50
2022-12-25T19:57:59.285Z,14.30
2022-12-25T20:01:10.929Z,13.30
2022-12-25T20:03:59.430Z,12.50
2022-12-25T20:06:47.487Z,13.20
2022-12-25T20:09:35.786Z,13.10
2022-12-25T20:12:23.903Z,12.60
2022-12-25T20:15:11.985Z,12.40
2022-12-25T20:18:00.223Z,13.40
2022-12-25T20:20:48.012Z,11.90
2022-12-25T20:23:36.975Z,13.70
2022-12-25T20:26:29.914Z,13.90
2022-12-25T20:29:17.878Z,12.70
2022-12-25T20:32:06.072Z,14.10
2022-12-25T20:34:54.342Z,14.20
2022-12-25T20:37:43.342Z,14.70
2022-12-25T20:40:32.449Z,14.80
2022-12-25T20:43:29.637Z,15.40
2022-12-25T20:46:17.469Z,16.20
2022-12-25T20:49:06.205Z,15.00
2022-12-25T20:51:57.335Z,16.40
2022-12-25T20:54:48.263Z,16.30
2022-12-25T20:57:38.121Z,17.30
2022-12-25T21:00:26.361Z,15.90
2022-12-25T21:03:14.595Z,15.70
2022-12-25T21:06:02.976Z,15.40
2022-12-25T21:08:51.169Z,15.80
2022-12-25T21:11:39.772Z,14.80
2022-12-25T21:14:29.655Z,18.20
2022-12-25T21:17:17.904Z,17.00
2022-12-25T21:20:07.817Z,14.10
2022-12-25T21:22:56.296Z,17.20
2022-12-25T21:25:47.480Z,16.60
2022-12-25T21:28:35.588Z,16.70
2022-12-25T21:31:24.785Z,16.60
2022-12-25T21:34:13.537Z,16.60
2022-12-25T21:37:01.566Z,17.20
2022-12-25T21:39:50.694Z,15.30
2022-12-25T21:42:38.689Z,17.90
2022-12-25T21:45:26.696Z,17.40
2022-12-25T21:48:14.380Z,17.00
2022-12-25T21:51:27.697Z,15.30
2022-12-25T21:54:17.828Z,16.30
2022-12-25T21:57:06.121Z,16.00
2022-12-25T21:59:54.416Z,16.70
2022-12-25T22:02:42.755Z,15.60
2022-12-25T22:05:50.392Z,16.10
2022-12-25T22:08:38.797Z,16.20
2022-12-25T22:11:46.096Z,16.30
2022-12-25T22:14:57.126Z,17.20
2022-12-25T22:18:04.251Z,17.20
2022-12-25T22:20:52.378Z,17.10
2022-12-25T22:23:40.358Z,16.00
2022-12-25T22:26:28.380Z,14.40
2022-12-25T22:29:16.482Z,16.20
2022-12-25T22:32:04.599Z,15.90
2022-12-25T22:34:52.641Z,15.90
2022-12-25T22:37:42.666Z,18.20
2022-12-25T22:40:30.937Z,18.70
2022-12-25T22:43:18.495Z,17.80
2022-12-25T22:46:07.610Z,17.40
2022-12-25T22:48:55.574Z,17.60
2022-12-25T22:51:45.469Z,14.60
2022-12-25T22:54:33.684Z,18.20
2022-12-25T22:57:21.965Z,17.20
2022-12-25T23:00:13.647Z,16.80
2022-12-25T23:03:01.649Z,17.50
2022-12-25T23:05:57.044Z,18.40
2022-12-25T23:08:45.217Z,18.00
2022-12-25T23:11:33.951Z,18.70
2022-12-25T23:14:40.191Z,17.50
2022-12-25T23:17:47.223Z,18.30
2022-12-25T23:20:55.224Z,18.70
2022-12-25T23:24:03.029Z,17.40
2022-12-25T23:26:51.171Z,18.30
2022-12-25T23:29:40.049Z,18.80
2022-12-25T23:32:28.351Z,16.50
2022-12-25T23:35:16.435Z,18.80
2022-12-25T23:38:04.596Z,21.10
2022-12-25T23:40:52.831Z,19.10
2022-12-25T23:43:40.570Z,18.80
2022-12-25T23:46:28.753Z,17.70
2022-12-25T23:49:17.323Z,19.00
2022-12-25T23:52:05.663Z,16.60
2022-12-25T23:54:53.704Z,19.20
2022-12-25T23:57:41.535Z,18.10
